sensor_id;sensor_type;location;lat;lon;timestamp;temperature;humidity
262;DHT22;114;48.260;10.988;2022-09-09T00:00:53;11.40;94.40
262;DHT22;114;48.260;10.988;2022-09-09T00:03:27;11.40;94.40
262;DHT22;114;48.260;10.988;2022-09-09T00:08:45;11.40;94.50
262;DHT22;114;48.260;10.988;2022-09-09T00:11:24;11.40;94.90
262;DHT22;114;48.260;10.988;2022-09-09T00:13:53;11.40;95.20
262;DHT22;114;48.260;10.988;2022-09-09T00:16:32;11.30;95.60
262;DHT22;114;48.260;10.988;2022-09-09T00:19:16;11.40;96.10
262;DHT22;114;48.260;10.988;2022-09-09T00:24:55;11.30;95.90
262;DHT22;114;48.260;10.988;2022-09-09T00:27:41;11.30;95.80
262;DHT22;114;48.260;10.988;2022-09-09T00:32:49;11.30;96.50
262;DHT22;114;48.260;10.988;2022-09-09T00:38:00;11.30;96.80
262;DHT22;114;48.260;10.988;2022-09-09T00:40:33;11.30;96.80
262;DHT22;114;48.260;10.988;2022-09-09T00:52:02;11.30;96.60
262;DHT22;114;48.260;10.988;2022-09-09T00:57:36;11.30;96.80
262;DHT22;114;48.260;10.988;2022-09-09T01:09:00;11.40;97.00
262;DHT22;114;48.260;10.988;2022-09-09T01:17:46;11.40;96.80
262;DHT22;114;48.260;10.988;2022-09-09T01:20:27;11.40;96.80
262;DHT22;114;48.260;10.988;2022-09-09T01:28:44;11.50;96.40
262;DHT22;114;48.260;10.988;2022-09-09T01:31:23;11.50;96.30
262;DHT22;114;48.260;10.988;2022-09-09T01:33:52;11.60;96.30
262;DHT22;114;48.260;10.988;2022-09-09T01:36:38;11.50;96.10
262;DHT22;114;48.260;10.988;2022-09-09T01:39:06;11.50;96.10
262;DHT22;114;48.260;10.988;2022-09-09T01:41:32;11.50;96.10
262;DHT22;114;48.260;10.988;2022-09-09T01:43:59;11.50;96.20
262;DHT22;114;48.260;10.988;2022-09-09T01:46:25;11.50;96.40
262;DHT22;114;48.260;10.988;2022-09-09T01:48:52;11.50;96.50
262;DHT22;114;48.260;10.988;2022-09-09T01:51:19;11.50;96.60
262;DHT22;114;48.260;10.988;2022-09-09T01:53:45;11.50;96.50
262;DHT22;114;48.260;10.988;2022-09-09T01:56:18;11.50;96.70
262;DHT22;114;48.260;10.988;2022-09-09T02:06:55;11.40;96.60
262;DHT22;114;48.260;10.988;2022-09-09T02:09:24;11.40;96.70
262;DHT22;114;48.260;10.988;2022-09-09T02:12:05;11.30;96.80
262;DHT22;114;48.260;10.988;2022-09-09T02:14:38;11.30;96.80
262;DHT22;114;48.260;10.988;2022-09-09T02:17:11;11.30;96.90
262;DHT22;114;48.260;10.988;2022-09-09T02:19:49;11.30;97.00
262;DHT22;114;48.260;10.988;2022-09-09T02:22:20;11.30;97.00
262;DHT22;114;48.260;10.988;2022-09-09T02:24:47;11.30;97.00
262;DHT22;114;48.260;10.988;2022-09-09T02:27:13;11.20;97.00
262;DHT22;114;48.260;10.988;2022-09-09T02:29:42;11.20;97.00
262;DHT22;114;48.260;10.988;2022-09-09T02:32:13;11.20;96.80
262;DHT22;114;48.260;10.988;2022-09-09T02:34:46;11.20;96.80
262;DHT22;114;48.260;10.988;2022-09-09T02:37:16;11.20;96.70
262;DHT22;114;48.260;10.988;2022-09-09T02:39:43;11.20;96.70
262;DHT22;114;48.260;10.988;2022-09-09T02:42:11;11.20;96.90
262;DHT22;114;48.260;10.988;2022-09-09T02:44:37;11.20;97.10
262;DHT22;114;48.260;10.988;2022-09-09T02:52:30;11.10;97.40
262;DHT22;114;48.260;10.988;2022-09-09T02:55:08;11.10;97.60
262;DHT22;114;48.260;10.988;2022-09-09T02:57:38;11.10;97.80
262;DHT22;114;48.260;10.988;2022-09-09T03:00:05;11.20;97.90
262;DHT22;114;48.260;10.988;2022-09-09T03:02:33;11.20;98.20
262;DHT22;114;48.260;10.988;2022-09-09T03:04:59;11.20;97.90
262;DHT22;114;48.260;10.988;2022-09-09T03:07:24;11.20;97.90
262;DHT22;114;48.260;10.988;2022-09-09T03:09:50;11.20;97.80
262;DHT22;114;48.260;10.988;2022-09-09T03:12:16;11.20;97.80
262;DHT22;114;48.260;10.988;2022-09-09T03:14:42;11.20;97.80
262;DHT22;114;48.260;10.988;2022-09-09T03:17:11;11.20;97.70
262;DHT22;114;48.260;10.988;2022-09-09T03:19:37;11.20;97.70
262;DHT22;114;48.260;10.988;2022-09-09T03:22:04;11.10;97.30
262;DHT22;114;48.260;10.988;2022-09-09T03:24:31;11.10;97.30
262;DHT22;114;48.260;10.988;2022-09-09T03:26:56;11.10;97.30
262;DHT22;114;48.260;10.988;2022-09-09T03:29:23;11.00;97.20
262;DHT22;114;48.260;10.988;2022-09-09T03:31:49;10.90;97.30
262;DHT22;114;48.260;10.988;2022-09-09T03:34:16;10.90;97.80
262;DHT22;114;48.260;10.988;2022-09-09T03:36:41;10.90;97.80
262;DHT22;114;48.260;10.988;2022-09-09T03:39:07;10.90;97.60
262;DHT22;114;48.260;10.988;2022-09-09T03:41:34;10.90;97.70
262;DHT22;114;48.260;10.988;2022-09-09T03:43:59;10.90;97.50
262;DHT22;114;48.260;10.988;2022-09-09T03:46:26;10.80;97.60
262;DHT22;114;48.260;10.988;2022-09-09T03:48:52;10.80;97.60
262;DHT22;114;48.260;10.988;2022-09-09T03:51:18;10.80;97.50
262;DHT22;114;48.260;10.988;2022-09-09T03:53:44;10.80;97.60
262;DHT22;114;48.260;10.988;2022-09-09T03:56:10;10.80;97.70
262;DHT22;114;48.260;10.988;2022-09-09T03:58:37;10.80;97.70
262;DHT22;114;48.260;10.988;2022-09-09T04:01:07;10.80;97.90
262;DHT22;114;48.260;10.988;2022-09-09T04:03:39;10.80;98.00
262;DHT22;114;48.260;10.988;2022-09-09T04:06:06;10.80;98.20
262;DHT22;114;48.260;10.988;2022-09-09T04:08:34;10.80;98.30
262;DHT22;114;48.260;10.988;2022-09-09T04:11:02;10.80;98.40
262;DHT22;114;48.260;10.988;2022-09-09T04:13:33;10.90;98.60
262;DHT22;114;48.260;10.988;2022-09-09T04:16:01;10.90;98.60
262;DHT22;114;48.260;10.988;2022-09-09T04:18:27;11.00;98.70
262;DHT22;114;48.260;10.988;2022-09-09T04:20:54;11.10;98.30
262;DHT22;114;48.260;10.988;2022-09-09T04:23:23;11.20;98.30
262;DHT22;114;48.260;10.988;2022-09-09T04:25:52;11.20;98.20
262;DHT22;114;48.260;10.988;2022-09-09T04:28:20;11.30;98.00
262;DHT22;114;48.260;10.988;2022-09-09T04:30:46;11.40;98.40
262;DHT22;114;48.260;10.988;2022-09-09T04:33:13;11.40;97.80
262;DHT22;114;48.260;10.988;2022-09-09T04:35:44;11.50;97.40
262;DHT22;114;48.260;10.988;2022-09-09T04:38:10;11.50;96.90
262;DHT22;114;48.260;10.988;2022-09-09T04:40:36;11.60;96.70
262;DHT22;114;48.260;10.988;2022-09-09T04:43:03;11.70;96.50
262;DHT22;114;48.260;10.988;2022-09-09T04:45:30;11.80;96.40
262;DHT22;114;48.260;10.988;2022-09-09T04:47:57;11.80;95.90
262;DHT22;114;48.260;10.988;2022-09-09T04:50:23;11.90;95.60
262;DHT22;114;48.260;10.988;2022-09-09T04:52:49;12.00;95.60
262;DHT22;114;48.260;10.988;2022-09-09T04:55:17;12.00;95.50
262;DHT22;114;48.260;10.988;2022-09-09T04:57:43;12.10;95.50
262;DHT22;114;48.260;10.988;2022-09-09T05:00:09;12.10;95.10
262;DHT22;114;48.260;10.988;2022-09-09T05:02:40;12.20;94.70
262;DHT22;114;48.260;10.988;2022-09-09T05:05:08;12.20;94.30
262;DHT22;114;48.260;10.988;2022-09-09T05:07:34;12.30;93.90
262;DHT22;114;48.260;10.988;2022-09-09T05:10:00;12.40;94.00
262;DHT22;114;48.260;10.988;2022-09-09T05:12:26;12.70;96.30
262;DHT22;114;48.260;10.988;2022-09-09T05:14:52;13.00;96.40
262;DHT22;114;48.260;10.988;2022-09-09T05:17:18;13.00;95.70
262;DHT22;114;48.260;10.988;2022-09-09T05:19:44;13.30;94.70
262;DHT22;114;48.260;10.988;2022-09-09T05:22:10;13.40;93.20
262;DHT22;114;48.260;10.988;2022-09-09T05:24:37;13.60;92.70
262;DHT22;114;48.260;10.988;2022-09-09T05:27:05;13.60;92.00
262;DHT22;114;48.260;10.988;2022-09-09T05:29:33;13.70;91.80
262;DHT22;114;48.260;10.988;2022-09-09T05:31:59;13.80;90.40
262;DHT22;114;48.260;10.988;2022-09-09T05:34:25;13.90;90.20
262;DHT22;114;48.260;10.988;2022-09-09T05:36:51;14.00;86.90
262;DHT22;114;48.260;10.988;2022-09-09T05:39:18;13.90;83.10
262;DHT22;114;48.260;10.988;2022-09-09T05:41:44;14.00;84.50
262;DHT22;114;48.260;10.988;2022-09-09T05:44:10;14.10;82.30
262;DHT22;114;48.260;10.988;2022-09-09T05:46:36;14.00;80.10
262;DHT22;114;48.260;10.988;2022-09-09T05:49:02;13.80;87.20
262;DHT22;114;48.260;10.988;2022-09-09T05:51:29;13.80;91.90
262;DHT22;114;48.260;10.988;2022-09-09T05:53:58;13.90;92.40
262;DHT22;114;48.260;10.988;2022-09-09T05:56:26;13.90;91.80
262;DHT22;114;48.260;10.988;2022-09-09T05:58:53;14.00;92.40
262;DHT22;114;48.260;10.988;2022-09-09T06:03:50;14.00;90.00
262;DHT22;114;48.260;10.988;2022-09-09T06:06:19;13.90;88.50
262;DHT22;114;48.260;10.988;2022-09-09T06:08:53;13.80;86.70
262;DHT22;114;48.260;10.988;2022-09-09T06:11:28;13.90;86.80
262;DHT22;114;48.260;10.988;2022-09-09T06:13:57;13.80;85.20
262;DHT22;114;48.260;10.988;2022-09-09T06:16:25;13.80;84.00
262;DHT22;114;48.260;10.988;2022-09-09T06:18:54;13.90;82.40
262;DHT22;114;48.260;10.988;2022-09-09T06:21:27;13.90;82.30
262;DHT22;114;48.260;10.988;2022-09-09T06:23:53;14.00;78.20
262;DHT22;114;48.260;10.988;2022-09-09T06:28:55;14.10;82.80
262;DHT22;114;48.260;10.988;2022-09-09T06:31:24;14.20;81.80
262;DHT22;114;48.260;10.988;2022-09-09T06:33:53;14.20;78.10
262;DHT22;114;48.260;10.988;2022-09-09T06:36:25;14.30;77.80
262;DHT22;114;48.260;10.988;2022-09-09T06:38:51;14.50;78.30
262;DHT22;114;48.260;10.988;2022-09-09T06:41:21;14.60;73.90
262;DHT22;114;48.260;10.988;2022-09-09T06:43:48;14.70;74.60
262;DHT22;114;48.260;10.988;2022-09-09T06:46:16;14.70;68.00
262;DHT22;114;48.260;10.988;2022-09-09T06:48:43;14.70;66.80
262;DHT22;114;48.260;10.988;2022-09-09T06:51:19;14.90;66.10
262;DHT22;114;48.260;10.988;2022-09-09T06:53:47;15.00;66.50
262;DHT22;114;48.260;10.988;2022-09-09T06:56:31;15.20;61.60
262;DHT22;114;48.260;10.988;2022-09-09T06:58:59;15.30;62.60
262;DHT22;114;48.260;10.988;2022-09-09T07:01:28;15.40;60.50
262;DHT22;114;48.260;10.988;2022-09-09T07:03:57;15.30;54.40
262;DHT22;114;48.260;10.988;2022-09-09T07:06:42;15.40;57.60
262;DHT22;114;48.260;10.988;2022-09-09T07:09:15;15.20;56.60
262;DHT22;114;48.260;10.988;2022-09-09T07:11:51;15.10;59.10
262;DHT22;114;48.260;10.988;2022-09-09T07:14:20;15.00;62.80
262;DHT22;114;48.260;10.988;2022-09-09T07:16:46;15.00;65.70
262;DHT22;114;48.260;10.988;2022-09-09T07:19:13;15.00;69.50
262;DHT22;114;48.260;10.988;2022-09-09T07:21:40;15.00;71.00
262;DHT22;114;48.260;10.988;2022-09-09T07:24:06;15.00;71.20
262;DHT22;114;48.260;10.988;2022-09-09T07:26:35;15.30;71.10
262;DHT22;114;48.260;10.988;2022-09-09T07:29:02;15.40;68.30
262;DHT22;114;48.260;10.988;2022-09-09T07:31:30;15.40;65.30
262;DHT22;114;48.260;10.988;2022-09-09T07:33:57;15.30;70.00
262;DHT22;114;48.260;10.988;2022-09-09T07:36:31;15.40;69.40
262;DHT22;114;48.260;10.988;2022-09-09T07:39:00;15.40;69.60
262;DHT22;114;48.260;10.988;2022-09-09T07:41:34;15.40;70.10
262;DHT22;114;48.260;10.988;2022-09-09T07:44:08;15.50;72.60
262;DHT22;114;48.260;10.988;2022-09-09T07:46:35;15.40;71.70
262;DHT22;114;48.260;10.988;2022-09-09T07:49:00;15.40;72.60
262;DHT22;114;48.260;10.988;2022-09-09T07:51:32;15.40;74.30
262;DHT22;114;48.260;10.988;2022-09-09T07:54:01;15.50;74.00
262;DHT22;114;48.260;10.988;2022-09-09T07:56:28;15.50;73.20
262;DHT22;114;48.260;10.988;2022-09-09T07:58:56;15.60;70.90
262;DHT22;114;48.260;10.988;2022-09-09T08:01:26;15.70;70.30
262;DHT22;114;48.260;10.988;2022-09-09T08:03:55;15.80;69.40
262;DHT22;114;48.260;10.988;2022-09-09T08:06:21;15.80;67.90
262;DHT22;114;48.260;10.988;2022-09-09T08:08:50;15.90;67.30
262;DHT22;114;48.260;10.988;2022-09-09T08:11:17;16.00;63.10
262;DHT22;114;48.260;10.988;2022-09-09T08:13:44;16.10;59.10
262;DHT22;114;48.260;10.988;2022-09-09T08:16:21;16.10;62.10
262;DHT22;114;48.260;10.988;2022-09-09T08:18:51;16.20;60.10
262;DHT22;114;48.260;10.988;2022-09-09T08:21:28;16.30;56.70
262;DHT22;114;48.260;10.988;2022-09-09T08:23:56;16.50;60.50
262;DHT22;114;48.260;10.988;2022-09-09T08:26:31;16.50;63.20
262;DHT22;114;48.260;10.988;2022-09-09T08:28:59;16.70;60.60
262;DHT22;114;48.260;10.988;2022-09-09T08:31:34;16.70;59.60
262;DHT22;114;48.260;10.988;2022-09-09T08:34:01;16.90;64.40
262;DHT22;114;48.260;10.988;2022-09-09T08:36:30;17.00;66.80
262;DHT22;114;48.260;10.988;2022-09-09T08:38:59;17.20;63.80
262;DHT22;114;48.260;10.988;2022-09-09T08:58:14;17.30;41.80
262;DHT22;114;48.260;10.988;2022-09-09T09:09:02;17.30;30.30
262;DHT22;114;48.260;10.988;2022-09-09T09:14:25;17.30;32.30
262;DHT22;114;48.260;10.988;2022-09-09T09:19:20;17.40;31.10
262;DHT22;114;48.260;10.988;2022-09-09T09:22:09;17.40;32.00
262;DHT22;114;48.260;10.988;2022-09-09T09:25:26;17.40;31.30
262;DHT22;114;48.260;10.988;2022-09-09T09:30:21;17.60;30.30
262;DHT22;114;48.260;10.988;2022-09-09T09:35:19;17.80;28.00
262;DHT22;114;48.260;10.988;2022-09-09T09:37:45;17.90;26.30
262;DHT22;114;48.260;10.988;2022-09-09T09:40:22;18.00;24.10
262;DHT22;114;48.260;10.988;2022-09-09T09:42:56;17.90;24.90
262;DHT22;114;48.260;10.988;2022-09-09T09:45:43;17.90;23.30
262;DHT22;114;48.260;10.988;2022-09-09T09:48:15;17.80;23.10
262;DHT22;114;48.260;10.988;2022-09-09T09:53:32;17.90;23.40
262;DHT22;114;48.260;10.988;2022-09-09T09:58:31;18.00;21.80
262;DHT22;114;48.260;10.988;2022-09-09T10:01:00;18.10;20.50
262;DHT22;114;48.260;10.988;2022-09-09T10:03:35;18.10;20.60
262;DHT22;114;48.260;10.988;2022-09-09T10:06:06;18.10;18.80
262;DHT22;114;48.260;10.988;2022-09-09T10:08:43;18.10;18.60
262;DHT22;114;48.260;10.988;2022-09-09T10:14:21;17.90;19.70
262;DHT22;114;48.260;10.988;2022-09-09T10:17:00;17.80;18.50
262;DHT22;114;48.260;10.988;2022-09-09T10:19:35;17.80;18.30
262;DHT22;114;48.260;10.988;2022-09-09T10:27:35;17.90;14.80
262;DHT22;114;48.260;10.988;2022-09-09T10:30:21;17.90;16.60
262;DHT22;114;48.260;10.988;2022-09-09T10:47:00;18.40;11.70
262;DHT22;114;48.260;10.988;2022-09-09T10:55:13;18.40;11.80
262;DHT22;114;48.260;10.988;2022-09-09T10:57:51;18.30;13.50
262;DHT22;114;48.260;10.988;2022-09-09T11:00:23;18.50;13.00
262;DHT22;114;48.260;10.988;2022-09-09T11:03:01;18.40;13.50
262;DHT22;114;48.260;10.988;2022-09-09T11:05:34;18.50;14.10
262;DHT22;114;48.260;10.988;2022-09-09T11:08:11;18.50;13.30
262;DHT22;114;48.260;10.988;2022-09-09T11:19:03;18.30;13.00
262;DHT22;114;48.260;10.988;2022-09-09T11:21:46;18.30;15.80
262;DHT22;114;48.260;10.988;2022-09-09T11:24:29;18.30;15.60
262;DHT22;114;48.260;10.988;2022-09-09T11:27:33;18.50;13.30
262;DHT22;114;48.260;10.988;2022-09-09T11:40:28;18.20;15.70
262;DHT22;114;48.260;10.988;2022-09-09T11:43:19;18.30;16.00
262;DHT22;114;48.260;10.988;2022-09-09T11:45:56;18.30;11.80
262;DHT22;114;48.260;10.988;2022-09-09T11:51:01;18.40;14.30
262;DHT22;114;48.260;10.988;2022-09-09T11:53:31;18.60;12.60
262;DHT22;114;48.260;10.988;2022-09-09T11:56:09;18.70;8.90
262;DHT22;114;48.260;10.988;2022-09-09T11:58:44;18.70;8.10
262;DHT22;114;48.260;10.988;2022-09-09T12:01:36;18.50;8.70
262;DHT22;114;48.260;10.988;2022-09-09T12:09:49;18.80;8.60
262;DHT22;114;48.260;10.988;2022-09-09T12:12:27;19.20;4.90
262;DHT22;114;48.260;10.988;2022-09-09T12:15:02;19.30;4.20
262;DHT22;114;48.260;10.988;2022-09-09T12:17:31;19.10;2.80
262;DHT22;114;48.260;10.988;2022-09-09T12:20:10;19.40;5.00
262;DHT22;114;48.260;10.988;2022-09-09T12:23:24;19.80;2.50
262;DHT22;114;48.260;10.988;2022-09-09T12:30:48;19.80;1.00
262;DHT22;114;48.260;10.988;2022-09-09T12:33:20;19.70;1.00
262;DHT22;114;48.260;10.988;2022-09-09T12:35:55;19.50;2.80
262;DHT22;114;48.260;10.988;2022-09-09T12:38:35;19.60;3.10
262;DHT22;114;48.260;10.988;2022-09-09T12:41:02;19.80;1.90
262;DHT22;114;48.260;10.988;2022-09-09T12:43:28;19.90;1.70
262;DHT22;114;48.260;10.988;2022-09-09T12:46:07;20.00;1.70
262;DHT22;114;48.260;10.988;2022-09-09T12:48:37;19.80;2.10
262;DHT22;114;48.260;10.988;2022-09-09T12:51:19;19.80;1.80
262;DHT22;114;48.260;10.988;2022-09-09T12:53:46;19.80;2.00
262;DHT22;114;48.260;10.988;2022-09-09T12:56:21;19.70;1.00
262;DHT22;114;48.260;10.988;2022-09-09T12:58:50;19.60;1.60
262;DHT22;114;48.260;10.988;2022-09-09T13:01:29;19.70;1.00
262;DHT22;114;48.260;10.988;2022-09-09T13:03:56;19.70;1.00
262;DHT22;114;48.260;10.988;2022-09-09T13:06:24;20.10;1.00
262;DHT22;114;48.260;10.988;2022-09-09T13:08:52;20.70;1.00
262;DHT22;114;48.260;10.988;2022-09-09T13:11:24;21.10;1.00
262;DHT22;114;48.260;10.988;2022-09-09T13:13:54;21.40;1.00
262;DHT22;114;48.260;10.988;2022-09-09T13:16:25;22.20;1.00
262;DHT22;114;48.260;10.988;2022-09-09T13:18:52;23.00;1.00
262;DHT22;114;48.260;10.988;2022-09-09T13:21:18;23.90;1.00
262;DHT22;114;48.260;10.988;2022-09-09T13:23:49;24.00;1.00
262;DHT22;114;48.260;10.988;2022-09-09T13:26:26;24.50;1.00
262;DHT22;114;48.260;10.988;2022-09-09T13:29:07;24.40;1.00
262;DHT22;114;48.260;10.988;2022-09-09T13:31:36;23.90;1.00
262;DHT22;114;48.260;10.988;2022-09-09T13:36:56;23.10;1.00
262;DHT22;114;48.260;10.988;2022-09-09T13:39:26;23.40;1.00
262;DHT22;114;48.260;10.988;2022-09-09T13:41:52;23.70;1.00
262;DHT22;114;48.260;10.988;2022-09-09T13:44:27;24.40;1.00
262;DHT22;114;48.260;10.988;2022-09-09T13:49:29;26.30;1.00
262;DHT22;114;48.260;10.988;2022-09-09T13:52:08;24.80;1.00
262;DHT22;114;48.260;10.988;2022-09-09T13:54:34;23.20;1.00
262;DHT22;114;48.260;10.988;2022-09-09T13:57:01;21.60;1.00
262;DHT22;114;48.260;10.988;2022-09-09T13:59:27;21.10;1.00
262;DHT22;114;48.260;10.988;2022-09-09T14:01:53;20.60;1.00
262;DHT22;114;48.260;10.988;2022-09-09T14:04:19;20.40;1.00
262;DHT22;114;48.260;10.988;2022-09-09T14:06:50;20.20;1.00
262;DHT22;114;48.260;10.988;2022-09-09T14:09:17;20.20;1.00
262;DHT22;114;48.260;10.988;2022-09-09T14:11:44;20.10;1.00
262;DHT22;114;48.260;10.988;2022-09-09T14:14:11;20.00;1.00
262;DHT22;114;48.260;10.988;2022-09-09T14:16:37;20.00;1.00
262;DHT22;114;48.260;10.988;2022-09-09T14:19:03;19.90;1.00
262;DHT22;114;48.260;10.988;2022-09-09T14:21:29;20.00;1.00
262;DHT22;114;48.260;10.988;2022-09-09T14:23:55;20.10;1.00
262;DHT22;114;48.260;10.988;2022-09-09T14:26:24;20.90;1.00
262;DHT22;114;48.260;10.988;2022-09-09T14:28:52;22.70;1.00
262;DHT22;114;48.260;10.988;2022-09-09T14:31:18;24.90;1.00
262;DHT22;114;48.260;10.988;2022-09-09T14:33:45;26.40;1.00
262;DHT22;114;48.260;10.988;2022-09-09T14:36:11;26.80;1.00
262;DHT22;114;48.260;10.988;2022-09-09T14:38:38;27.10;1.00
262;DHT22;114;48.260;10.988;2022-09-09T14:41:13;27.50;1.00
262;DHT22;114;48.260;10.988;2022-09-09T14:43:40;27.40;1.00
262;DHT22;114;48.260;10.988;2022-09-09T14:46:07;28.20;1.00
262;DHT22;114;48.260;10.988;2022-09-09T14:48:34;29.30;1.00
262;DHT22;114;48.260;10.988;2022-09-09T14:51:17;29.40;1.00
262;DHT22;114;48.260;10.988;2022-09-09T14:53:46;29.30;1.00
262;DHT22;114;48.260;10.988;2022-09-09T14:56:15;29.00;1.00
262;DHT22;114;48.260;10.988;2022-09-09T14:58:41;27.60;1.00
262;DHT22;114;48.260;10.988;2022-09-09T15:01:16;26.60;1.00
262;DHT22;114;48.260;10.988;2022-09-09T15:03:50;24.70;1.00
262;DHT22;114;48.260;10.988;2022-09-09T15:06:17;23.70;1.00
262;DHT22;114;48.260;10.988;2022-09-09T15:08:45;22.90;1.00
262;DHT22;114;48.260;10.988;2022-09-09T15:11:12;23.50;1.00
262;DHT22;114;48.260;10.988;2022-09-09T15:13:40;25.20;1.00
262;DHT22;114;48.260;10.988;2022-09-09T15:16:11;26.10;1.00
262;DHT22;114;48.260;10.988;2022-09-09T15:18:38;26.90;1.00
262;DHT22;114;48.260;10.988;2022-09-09T15:21:15;27.20;1.00
262;DHT22;114;48.260;10.988;2022-09-09T15:23:41;26.10;1.00
262;DHT22;114;48.260;10.988;2022-09-09T15:26:08;24.90;1.00
262;DHT22;114;48.260;10.988;2022-09-09T15:28:35;24.10;1.00
262;DHT22;114;48.260;10.988;2022-09-09T15:31:12;23.50;1.00
262;DHT22;114;48.260;10.988;2022-09-09T15:34:04;22.60;1.00
262;DHT22;114;48.260;10.988;2022-09-09T15:36:50;21.80;1.00
262;DHT22;114;48.260;10.988;2022-09-09T15:39:18;21.40;1.00
262;DHT22;114;48.260;10.988;2022-09-09T15:41:47;21.30;1.00
262;DHT22;114;48.260;10.988;2022-09-09T15:44:14;21.20;1.00
262;DHT22;114;48.260;10.988;2022-09-09T15:46:59;20.90;1.00
262;DHT22;114;48.260;10.988;2022-09-09T15:49:26;20.80;1.00
262;DHT22;114;48.260;10.988;2022-09-09T15:51:59;20.60;1.00
262;DHT22;114;48.260;10.988;2022-09-09T15:54:31;20.50;1.00
262;DHT22;114;48.260;10.988;2022-09-09T15:56:59;20.30;1.00
262;DHT22;114;48.260;10.988;2022-09-09T15:59:27;20.20;1.00
262;DHT22;114;48.260;10.988;2022-09-09T16:01:55;20.10;1.00
262;DHT22;114;48.260;10.988;2022-09-09T16:04:23;20.00;1.00
262;DHT22;114;48.260;10.988;2022-09-09T16:07:00;19.90;1.00
262;DHT22;114;48.260;10.988;2022-09-09T16:09:27;19.70;1.00
262;DHT22;114;48.260;10.988;2022-09-09T16:11:56;19.60;1.00
262;DHT22;114;48.260;10.988;2022-09-09T16:14:23;19.50;1.00
262;DHT22;114;48.260;10.988;2022-09-09T16:16:51;19.40;1.00
262;DHT22;114;48.260;10.988;2022-09-09T16:19:16;19.50;1.00
262;DHT22;114;48.260;10.988;2022-09-09T16:21:45;19.50;1.00
262;DHT22;114;48.260;10.988;2022-09-09T16:24:14;19.40;1.00
262;DHT22;114;48.260;10.988;2022-09-09T16:26:46;19.30;1.00
262;DHT22;114;48.260;10.988;2022-09-09T16:29:14;19.20;1.00
262;DHT22;114;48.260;10.988;2022-09-09T16:31:43;19.10;1.00
262;DHT22;114;48.260;10.988;2022-09-09T16:34:10;19.00;1.00
262;DHT22;114;48.260;10.988;2022-09-09T16:36:39;18.90;1.00
262;DHT22;114;48.260;10.988;2022-09-09T16:39:10;18.80;1.00
262;DHT22;114;48.260;10.988;2022-09-09T16:41:39;18.70;1.00
262;DHT22;114;48.260;10.988;2022-09-09T16:44:07;18.70;1.00
262;DHT22;114;48.260;10.988;2022-09-09T16:46:36;18.60;1.00
262;DHT22;114;48.260;10.988;2022-09-09T16:49:05;18.60;1.00
262;DHT22;114;48.260;10.988;2022-09-09T16:51:39;18.60;1.00
262;DHT22;114;48.260;10.988;2022-09-09T16:54:07;18.70;1.00
262;DHT22;114;48.260;10.988;2022-09-09T16:56:36;18.70;1.00
262;DHT22;114;48.260;10.988;2022-09-09T16:59:08;18.70;1.00
262;DHT22;114;48.260;10.988;2022-09-09T17:01:36;18.70;1.00
262;DHT22;114;48.260;10.988;2022-09-09T17:04:05;18.60;1.00
262;DHT22;114;48.260;10.988;2022-09-09T17:06:33;18.50;1.00
262;DHT22;114;48.260;10.988;2022-09-09T17:09:06;18.40;1.00
262;DHT22;114;48.260;10.988;2022-09-09T17:11:32;18.30;1.00
262;DHT22;114;48.260;10.988;2022-09-09T17:13:58;18.30;1.00
262;DHT22;114;48.260;10.988;2022-09-09T17:16:28;18.20;1.00
262;DHT22;114;48.260;10.988;2022-09-09T17:18:55;17.90;1.00
262;DHT22;114;48.260;10.988;2022-09-09T17:21:23;17.90;1.00
262;DHT22;114;48.260;10.988;2022-09-09T17:23:52;17.80;1.40
262;DHT22;114;48.260;10.988;2022-09-09T17:26:20;17.80;1.90
262;DHT22;114;48.260;10.988;2022-09-09T17:28:47;17.60;3.00
262;DHT22;114;48.260;10.988;2022-09-09T17:31:15;17.60;3.70
262;DHT22;114;48.260;10.988;2022-09-09T17:33:44;17.60;4.60
262;DHT22;114;48.260;10.988;2022-09-09T17:36:14;17.50;5.30
262;DHT22;114;48.260;10.988;2022-09-09T17:38:41;17.50;6.30
262;DHT22;114;48.260;10.988;2022-09-09T17:41:17;17.60;9.90
262;DHT22;114;48.260;10.988;2022-09-09T17:43:44;17.40;7.90
262;DHT22;114;48.260;10.988;2022-09-09T17:46:13;17.40;8.90
262;DHT22;114;48.260;10.988;2022-09-09T17:48:40;17.20;10.10
262;DHT22;114;48.260;10.988;2022-09-09T17:51:09;17.10;11.10
262;DHT22;114;48.260;10.988;2022-09-09T17:53:39;17.10;11.10
262;DHT22;114;48.260;10.988;2022-09-09T17:56:07;17.00;10.80
262;DHT22;114;48.260;10.988;2022-09-09T17:58:34;16.90;11.60
262;DHT22;114;48.260;10.988;2022-09-09T18:01:13;16.90;13.50
262;DHT22;114;48.260;10.988;2022-09-09T18:03:41;16.80;11.20
262;DHT22;114;48.260;10.988;2022-09-09T18:06:10;16.80;11.80
262;DHT22;114;48.260;10.988;2022-09-09T18:08:39;16.70;11.50
262;DHT22;114;48.260;10.988;2022-09-09T18:11:06;16.70;11.70
262;DHT22;114;48.260;10.988;2022-09-09T18:13:33;16.60;11.60
262;DHT22;114;48.260;10.988;2022-09-09T18:16:01;16.60;11.70
262;DHT22;114;48.260;10.988;2022-09-09T18:18:28;16.40;1.00
262;DHT22;114;48.260;10.988;2022-09-09T18:21:06;16.20;1.00
262;DHT22;114;48.260;10.988;2022-09-09T18:23:41;15.90;8.40
262;DHT22;114;48.260;10.988;2022-09-09T18:26:13;15.30;21.80
262;DHT22;114;48.260;10.988;2022-09-09T18:28:40;14.90;29.40
262;DHT22;114;48.260;10.988;2022-09-09T18:31:08;14.70;35.80
262;DHT22;114;48.260;10.988;2022-09-09T18:33:40;14.20;41.40
262;DHT22;114;48.260;10.988;2022-09-09T18:36:23;14.20;50.30
262;DHT22;114;48.260;10.988;2022-09-09T18:38:50;14.10;54.30
262;DHT22;114;48.260;10.988;2022-09-09T18:41:23;14.10;56.30
262;DHT22;114;48.260;10.988;2022-09-09T18:43:51;14.00;61.10
262;DHT22;114;48.260;10.988;2022-09-09T18:46:18;13.90;65.70
262;DHT22;114;48.260;10.988;2022-09-09T18:48:45;13.90;67.90
262;DHT22;114;48.260;10.988;2022-09-09T18:51:13;13.90;61.40
262;DHT22;114;48.260;10.988;2022-09-09T18:53:39;13.80;61.60
262;DHT22;114;48.260;10.988;2022-09-09T18:56:11;13.80;59.60
262;DHT22;114;48.260;10.988;2022-09-09T18:58:38;13.70;60.00
262;DHT22;114;48.260;10.988;2022-09-09T19:01:09;13.60;63.70
262;DHT22;114;48.260;10.988;2022-09-09T19:03:35;13.60;70.30
262;DHT22;114;48.260;10.988;2022-09-09T19:06:12;13.50;73.00
262;DHT22;114;48.260;10.988;2022-09-09T19:08:40;13.40;79.30
262;DHT22;114;48.260;10.988;2022-09-09T19:11:08;13.30;85.50
262;DHT22;114;48.260;10.988;2022-09-09T19:13:35;13.30;90.00
262;DHT22;114;48.260;10.988;2022-09-09T19:16:12;13.20;91.10
262;DHT22;114;48.260;10.988;2022-09-09T19:18:40;13.10;91.70
262;DHT22;114;48.260;10.988;2022-09-09T19:21:28;13.00;92.10
262;DHT22;114;48.260;10.988;2022-09-09T19:24:01;12.90;90.10
262;DHT22;114;48.260;10.988;2022-09-09T19:26:31;12.90;89.20
262;DHT22;114;48.260;10.988;2022-09-09T19:28:58;12.90;90.70
262;DHT22;114;48.260;10.988;2022-09-09T19:31:25;12.80;91.00
262;DHT22;114;48.260;10.988;2022-09-09T19:33:56;12.80;92.00